createdAt,value
2022-08-16T00:00:22.239Z,24.95
2022-08-16T00:02:50.591Z,24.94
2022-08-16T00:05:20.066Z,24.93
2022-08-16T00:07:49.454Z,24.92
2022-08-16T00:10:26.456Z,24.88
2022-08-16T00:12:57.043Z,24.88
2022-08-16T00:15:51.371Z,24.87
2022-08-16T00:18:19.471Z,24.84
2022-08-16T00:20:50.867Z,24.83
2022-08-16T00:23:24.572Z,24.82
2022-08-16T00:26:34.858Z,24.79
2022-08-16T00:28:55.846Z,24.78
2022-08-16T00:31:24.191Z,24.76
2022-08-16T00:33:52.217Z,24.74
2022-08-16T00:36:20.544Z,24.73
2022-08-16T00:38:49.600Z,24.71
2022-08-16T00:41:17.898Z,24.69
2022-08-16T00:43:47.080Z,24.66
2022-08-16T00:46:33.759Z,24.64
2022-08-16T00:49:05.181Z,24.62
2022-08-16T00:51:33.706Z,24.61
2022-08-16T00:54:02.782Z,24.57
2022-08-16T00:56:56.513Z,24.55
2022-08-16T00:59:25.217Z,24.55
2022-08-16T01:01:54.102Z,24.51
2022-08-16T01:04:30.076Z,24.49
2022-08-16T01:07:01.051Z,24.50
2022-08-16T01:09:33.608Z,24.49
2022-08-16T01:12:03.149Z,24.47
2022-08-16T01:14:36.655Z,24.45
2022-08-16T01:17:08.245Z,24.43
2022-08-16T01:19:41.101Z,24.43
2022-08-16T01:22:48.373Z,24.41
2022-08-16T01:25:07.803Z,24.38
2022-08-16T01:27:39.914Z,24.40
2022-08-16T01:30:20.681Z,24.37
2022-08-16T01:33:01.763Z,24.38
2022-08-16T01:35:42.252Z,24.36
2022-08-16T01:38:20.023Z,24.34
2022-08-16T01:40:50.958Z,24.31
2022-08-16T01:43:18.921Z,24.32
2022-08-16T01:45:47.309Z,24.30
2022-08-16T01:48:28.574Z,24.28
2022-08-16T01:51:08.185Z,24.27
2022-08-16T01:53:40.687Z,24.26
2022-08-16T01:56:22.068Z,24.24
2022-08-16T01:58:52.548Z,24.23
2022-08-16T02:01:20.274Z,24.21
2022-08-16T02:03:50.570Z,24.20
2022-08-16T02:06:34.667Z,24.19
2022-08-16T02:09:11.743Z,24.18
2022-08-16T02:11:47.600Z,24.15
2022-08-16T02:14:18.632Z,24.14
2022-08-16T02:16:49.595Z,24.12
2022-08-16T02:19:19.800Z,24.10
2022-08-16T02:22:08.531Z,24.08
2022-08-16T02:24:45.979Z,24.06
2022-08-16T02:27:15.617Z,24.03
2022-08-16T02:29:44.370Z,24.00
2022-08-16T02:32:48.993Z,24.00
2022-08-16T02:35:04.686Z,23.98
2022-08-16T02:37:52.070Z,23.96
2022-08-16T02:40:22.115Z,23.94
2022-08-16T02:42:52.598Z,23.93
2022-08-16T02:45:24.790Z,23.84
2022-08-16T02:48:00.421Z,23.88
2022-08-16T02:50:53.545Z,23.87
2022-08-16T02:53:23.672Z,23.85
2022-08-16T02:55:51.703Z,23.84
2022-08-16T02:58:25.130Z,23.82
2022-08-16T03:00:56.042Z,23.81
2022-08-16T03:03:26.205Z,23.79
2022-08-16T03:05:54.350Z,23.79
2022-08-16T03:08:51.316Z,23.76
2022-08-16T03:11:16.838Z,23.75
2022-08-16T03:13:51.135Z,23.73
2022-08-16T03:16:33.045Z,23.71
2022-08-16T03:19:08.306Z,23.66
2022-08-16T03:21:38.265Z,23.70
2022-08-16T03:24:29.425Z,23.68
2022-08-16T03:26:57.735Z,23.66
2022-08-16T03:29:30.117Z,23.66
2022-08-16T03:31:59.249Z,23.63
2022-08-16T03:34:27.505Z,23.63
2022-08-16T03:36:55.934Z,23.59
2022-08-16T03:39:24.373Z,23.60
2022-08-16T03:41:59.780Z,23.58
2022-08-16T03:44:44.404Z,23.56
2022-08-16T03:47:18.656Z,23.55
2022-08-16T03:49:51.976Z,23.54
2022-08-16T03:52:20.551Z,23.52
2022-08-16T03:54:58.162Z,23.50
2022-08-16T03:57:31.706Z,23.50
2022-08-16T04:00:12.346Z,23.46
2022-08-16T04:03:07.356Z,23.46
2022-08-16T04:05:37.696Z,23.44
2022-08-16T04:08:22.394Z,23.41
2022-08-16T04:10:52.755Z,23.40
2022-08-16T04:14:00.597Z,23.40
2022-08-16T04:16:27.245Z,23.38
2022-08-16T04:19:02.511Z,23.37
2022-08-16T04:21:32.394Z,23.36
2022-08-16T04:24:00.770Z,23.35
2022-08-16T04:26:30.955Z,23.33
2022-08-16T04:29:16.659Z,23.32
2022-08-16T04:31:56.316Z,23.31
2022-08-16T04:34:28.021Z,23.30
2022-08-16T04:36:58.022Z,23.27
2022-08-16T04:39:44.854Z,23.25
2022-08-16T04:42:15.090Z,23.25
2022-08-16T04:44:53.508Z,23.22
2022-08-16T04:47:25.276Z,23.22
2022-08-16T04:49:59.946Z,23.19
2022-08-16T04:52:34.213Z,23.19
2022-08-16T04:55:07.427Z,23.17
2022-08-16T04:57:35.582Z,23.16
2022-08-16T05:00:32.895Z,23.14
2022-08-16T05:03:01.317Z,23.13
2022-08-16T05:05:34.604Z,23.13
2022-08-16T05:08:28.433Z,23.12
2022-08-16T05:11:00.373Z,23.09
2022-08-16T05:13:39.955Z,23.08
2022-08-16T05:16:11.914Z,23.05
2022-08-16T05:18:45.999Z,23.03
2022-08-16T05:21:14.888Z,23.02
2022-08-16T05:23:45.465Z,23.02
2022-08-16T05:26:27.935Z,23.00
2022-08-16T05:28:56.483Z,23.01
2022-08-16T05:31:29.314Z,22.99
2022-08-16T05:34:00.238Z,22.97
2022-08-16T05:36:34.347Z,22.97
2022-08-16T05:39:06.336Z,22.95
2022-08-16T05:41:44.743Z,22.96
2022-08-16T05:44:24.213Z,22.96
2022-08-16T05:46:54.730Z,22.95
2022-08-16T05:49:24.647Z,22.95
2022-08-16T05:51:55.367Z,22.93
2022-08-16T05:54:25.179Z,22.93
2022-08-16T05:56:54.197Z,22.91
2022-08-16T05:59:26.813Z,22.93
2022-08-16T06:01:55.767Z,22.93
2022-08-16T06:04:36.702Z,22.94
2022-08-16T06:07:08.838Z,22.96
2022-08-16T06:09:43.497Z,22.96
2022-08-16T06:12:26.682Z,22.96
2022-08-16T06:14:59.157Z,23.02
2022-08-16T06:17:43.291Z,23.05
2022-08-16T06:20:18.603Z,23.08
2022-08-16T06:22:57.791Z,23.10
2022-08-16T06:25:36.179Z,23.12
2022-08-16T06:28:08.892Z,23.13
2022-08-16T06:30:43.752Z,23.16
2022-08-16T06:33:13.480Z,23.16
2022-08-16T06:35:55.229Z,23.17
2022-08-16T06:38:32.177Z,23.12
2022-08-16T06:41:03.830Z,23.15
2022-08-16T06:43:32.017Z,23.15
2022-08-16T06:46:00.811Z,23.13
2022-08-16T06:48:33.781Z,23.12
2022-08-16T06:51:04.578Z,23.08
2022-08-16T06:53:35.743Z,23.06
2022-08-16T06:56:14.473Z,23.07
2022-08-16T06:58:52.464Z,23.04
2022-08-16T07:01:26.286Z,23.03
2022-08-16T07:04:11.895Z,23.03
2022-08-16T07:06:43.110Z,23.03
2022-08-16T07:09:11.847Z,23.03
2022-08-16T07:11:46.111Z,23.04
2022-08-16T07:14:25.743Z,23.04
2022-08-16T07:16:58.385Z,23.04
2022-08-16T07:20:01.512Z,23.03
2022-08-16T07:22:38.795Z,23.05
2022-08-16T07:25:07.284Z,23.06
2022-08-16T07:27:37.353Z,23.07
2022-08-16T07:30:38.155Z,23.08
2022-08-16T07:32:56.494Z,23.08
2022-08-16T07:35:24.498Z,23.10
2022-08-16T07:37:54.204Z,23.10
2022-08-16T07:40:37.017Z,23.11
2022-08-16T07:43:10.359Z,23.09
2022-08-16T07:45:39.218Z,23.12
2022-08-16T07:48:12.465Z,23.14
2022-08-16T07:50:57.729Z,23.15
2022-08-16T07:53:30.135Z,23.16
2022-08-16T07:55:58.538Z,23.17
2022-08-16T07:58:34.198Z,23.19
2022-08-16T08:01:10.063Z,23.19
2022-08-16T08:03:42.498Z,23.20
2022-08-16T08:06:13.386Z,23.21
2022-08-16T08:08:50.777Z,23.21
2022-08-16T08:11:19.676Z,23.22
2022-08-16T08:13:50.767Z,23.24
2022-08-16T08:16:19.946Z,23.23
2022-08-16T08:18:50.459Z,23.25
2022-08-16T08:21:27.245Z,23.26
2022-08-16T08:23:57.641Z,23.28
2022-08-16T08:26:25.970Z,23.29
2022-08-16T08:28:53.690Z,23.30
2022-08-16T08:31:28.645Z,23.31
2022-08-16T08:33:57.073Z,23.32
2022-08-16T08:36:33.024Z,23.33
2022-08-16T08:39:03.133Z,23.34
2022-08-16T08:41:40.507Z,23.36
2022-08-16T08:44:28.866Z,23.37
2022-08-16T08:47:00.619Z,23.38
2022-08-16T08:49:50.311Z,23.39
2022-08-16T08:52:35.023Z,23.41
2022-08-16T08:55:11.040Z,23.41
2022-08-16T08:57:40.730Z,23.41
2022-08-16T09:00:13.493Z,23.45
2022-08-16T09:02:42.622Z,23.48
2022-08-16T09:05:15.466Z,23.51
2022-08-16T09:08:01.650Z,23.51
2022-08-16T09:10:34.848Z,23.57
2022-08-16T09:13:08.667Z,23.60
2022-08-16T09:15:39.683Z,23.64
2022-08-16T09:18:25.052Z,23.64
2022-08-16T09:20:58.885Z,23.69
2022-08-16T09:23:31.397Z,23.72
2022-08-16T09:26:42.948Z,23.75
2022-08-16T09:29:15.438Z,23.78
2022-08-16T09:31:41.965Z,23.81
2022-08-16T09:34:10.440Z,23.82
2022-08-16T09:36:46.177Z,23.84
2022-08-16T09:39:15.809Z,23.86
2022-08-16T09:41:53.213Z,23.91
2022-08-16T09:45:12.829Z,23.96
2022-08-16T09:47:11.644Z,24.00
2022-08-16T09:49:41.081Z,24.04
2022-08-16T09:52:11.245Z,24.07
2022-08-16T09:54:44.562Z,24.10
2022-08-16T09:57:14.435Z,24.15
2022-08-16T09:59:43.328Z,24.18
2022-08-16T10:02:26.494Z,24.21
2022-08-16T10:04:56.396Z,24.23
2022-08-16T10:07:24.830Z,24.27
2022-08-16T10:09:55.675Z,24.24
2022-08-16T10:12:44.123Z,24.29
2022-08-16T10:15:16.024Z,24.33
2022-08-16T10:18:00.347Z,24.37
2022-08-16T10:20:32.557Z,24.42
2022-08-16T10:23:06.723Z,24.47
2022-08-16T10:27:16.669Z,24.51
2022-08-16T10:28:28.989Z,24.53
2022-08-16T10:30:58.978Z,24.54
2022-08-16T10:33:29.299Z,24.57
2022-08-16T10:36:03.058Z,24.61
2022-08-16T10:38:33.215Z,24.65
2022-08-16T10:41:05.173Z,24.70
2022-08-16T10:43:36.834Z,24.79
2022-08-16T10:46:39.842Z,24.84
2022-08-16T10:48:52.796Z,24.88
2022-08-16T10:51:20.512Z,24.93
2022-08-16T10:54:02.694Z,24.95
2022-08-16T10:56:44.338Z,24.96
2022-08-16T10:59:38.537Z,25.02
2022-08-16T11:02:59.478Z,25.08
2022-08-16T11:05:08.107Z,25.14
2022-08-16T11:07:45.600Z,25.15
2022-08-16T11:19:06.363Z,25.45
2022-08-16T11:22:39.247Z,25.49
2022-08-16T11:24:41.477Z,25.50
2022-08-16T11:27:23.943Z,25.51
2022-08-16T11:30:01.327Z,25.51
2022-08-16T11:32:33.829Z,25.54
2022-08-16T11:35:13.334Z,25.57
2022-08-16T11:40:37.746Z,25.62
2022-08-16T11:43:06.804Z,25.66
2022-08-16T11:45:38.305Z,25.69
2022-08-16T11:48:08.579Z,25.73
2022-08-16T11:50:36.984Z,25.75
2022-08-16T11:53:08.170Z,25.78
2022-08-16T11:55:38.399Z,25.82
2022-08-16T11:58:07.803Z,25.87
2022-08-16T12:00:50.617Z,25.89
2022-08-16T12:03:24.964Z,25.90
2022-08-16T12:06:00.544Z,25.98
2022-08-16T12:08:28.398Z,26.00
2022-08-16T12:10:59.427Z,26.02
2022-08-16T12:13:30.186Z,26.03
2022-08-16T12:15:58.198Z,26.08
2022-08-16T12:18:27.260Z,26.10
2022-08-16T12:20:55.459Z,26.13
2022-08-16T12:23:26.261Z,26.12
2022-08-16T12:25:54.477Z,26.17
2022-08-16T12:28:37.072Z,26.19
2022-08-16T12:31:10.445Z,26.23
2022-08-16T12:33:44.765Z,26.30
2022-08-16T12:36:14.029Z,26.34
2022-08-16T12:38:48.269Z,26.38
2022-08-16T12:41:25.369Z,26.38
2022-08-16T12:43:57.301Z,26.40
2022-08-16T12:46:30.933Z,26.41
2022-08-16T12:49:00.337Z,26.42
2022-08-16T12:51:57.744Z,26.45
2022-08-16T12:54:20.151Z,26.47
2022-08-16T12:56:48.137Z,26.50
2022-08-16T12:59:20.885Z,26.53
2022-08-16T13:01:50.644Z,26.58
2022-08-16T13:04:31.381Z,26.62
2022-08-16T13:09:31.904Z,26.70
2022-08-16T13:12:18.881Z,26.71
2022-08-16T13:14:49.875Z,26.73
2022-08-16T13:17:21.259Z,26.76
2022-08-16T13:20:09.201Z,26.78
2022-08-16T13:25:12.274Z,26.81
2022-08-16T13:28:01.506Z,26.82
2022-08-16T13:30:35.999Z,26.84
2022-08-16T13:33:12.502Z,26.89
2022-08-16T13:35:43.917Z,26.92
2022-08-16T13:38:21.691Z,26.95
2022-08-16T13:40:53.793Z,26.99
2022-08-16T13:43:24.996Z,27.03
2022-08-16T13:45:55.297Z,27.06
2022-08-16T13:48:25.363Z,27.07
2022-08-16T13:50:56.378Z,27.05
2022-08-16T13:53:24.888Z,27.07
2022-08-16T13:55:58.578Z,27.06
2022-08-16T13:58:37.210Z,27.08
2022-08-16T14:01:17.119Z,27.11
2022-08-16T14:03:45.260Z,27.13
2022-08-16T14:06:15.160Z,27.13
2022-08-16T14:08:58.825Z,27.18
2022-08-16T14:11:34.470Z,27.21
2022-08-16T14:14:05.342Z,27.21
2022-08-16T14:16:34.889Z,27.24
2022-08-16T14:19:03.158Z,27.27
2022-08-16T14:21:35.455Z,27.29
2022-08-16T14:24:16.728Z,27.30
2022-08-16T14:26:51.192Z,27.30
2022-08-16T14:29:20.869Z,27.33
2022-08-16T14:31:49.559Z,27.32
2022-08-16T14:34:21.514Z,27.33
2022-08-16T14:36:54.900Z,27.31
2022-08-16T14:39:23.264Z,27.37
2022-08-16T14:41:53.704Z,27.39
2022-08-16T14:44:24.107Z,27.39
2022-08-16T14:46:54.024Z,27.40
2022-08-16T14:49:21.735Z,27.42
2022-08-16T14:51:49.484Z,27.45
2022-08-16T14:54:18.567Z,27.47
2022-08-16T14:56:54.873Z,27.48
2022-08-16T14:59:23.663Z,27.50
2022-08-16T15:01:59.295Z,27.51
2022-08-16T15:04:32.363Z,27.52
2022-08-16T15:07:11.098Z,27.53
2022-08-16T15:09:44.668Z,27.53
2022-08-16T15:12:33.622Z,27.52
2022-08-16T15:15:04.261Z,27.52
2022-08-16T15:17:33.971Z,27.51
2022-08-16T15:20:08.636Z,27.53
2022-08-16T15:22:41.977Z,27.55
2022-08-16T15:25:15.901Z,27.58
2022-08-16T15:27:43.708Z,27.56
2022-08-16T15:30:57.843Z,27.57
2022-08-16T15:33:04.745Z,27.56
2022-08-16T15:35:33.476Z,27.57
2022-08-16T15:38:09.183Z,27.58
2022-08-16T15:40:57.994Z,27.60
2022-08-16T15:43:33.793Z,27.62
2022-08-16T15:46:35.298Z,27.64
2022-08-16T15:49:15.453Z,27.65
2022-08-16T15:51:45.738Z,27.65
2022-08-16T15:54:30.115Z,27.67
2022-08-16T15:57:11.463Z,27.67
2022-08-16T15:59:48.784Z,27.67
2022-08-16T16:02:29.604Z,27.66
2022-08-16T16:05:01.839Z,27.67
2022-08-16T16:07:32.065Z,27.65
2022-08-16T16:10:02.545Z,27.65
2022-08-16T16:12:51.145Z,27.65
2022-08-16T16:15:22.611Z,27.66
2022-08-16T16:17:52.499Z,27.66
2022-08-16T16:20:21.366Z,27.68
2022-08-16T16:22:49.376Z,27.70
2022-08-16T16:25:18.351Z,27.70
2022-08-16T16:27:55.881Z,27.73
2022-08-16T16:30:38.305Z,27.75
2022-08-16T16:33:20.459Z,27.76
2022-08-16T16:35:55.524Z,27.75
2022-08-16T16:38:28.501Z,27.74
2022-08-16T16:40:56.223Z,27.74
2022-08-16T16:43:31.343Z,27.74
2022-08-16T16:46:00.445Z,27.73
2022-08-16T16:48:34.912Z,27.74
2022-08-16T16:51:09.466Z,27.73
2022-08-16T16:53:39.388Z,27.72
2022-08-16T16:56:10.540Z,27.72
2022-08-16T16:59:01.023Z,27.72
2022-08-16T17:01:59.344Z,27.74
2022-08-16T17:04:32.493Z,27.75
2022-08-16T17:07:01.427Z,27.76
2022-08-16T17:09:29.550Z,27.76
2022-08-16T17:11:58.149Z,27.76
2022-08-16T17:14:33.563Z,27.74
2022-08-16T17:17:04.015Z,27.74
2022-08-16T17:19:32.174Z,27.73
2022-08-16T17:22:00.201Z,27.72
2022-08-16T17:24:33.084Z,27.71
2022-08-16T17:27:07.851Z,27.72
2022-08-16T17:29:42.853Z,27.71
2022-08-16T17:32:34.033Z,27.70
2022-08-16T17:35:10.799Z,27.67
2022-08-16T17:37:48.786Z,27.65
2022-08-16T17:40:40.808Z,27.63
2022-08-16T17:43:13.415Z,27.62
2022-08-16T17:45:43.648Z,27.62
2022-08-16T17:48:12.270Z,27.61
2022-08-16T17:50:41.607Z,27.59
2022-08-16T17:53:11.512Z,27.59
2022-08-16T17:55:42.213Z,27.57
2022-08-16T17:58:20.129Z,27.56
2022-08-16T18:00:54.757Z,27.55
2022-08-16T18:04:02.667Z,27.56
2022-08-16T18:06:15.362Z,27.57
2022-08-16T18:08:43.111Z,27.57
2022-08-16T18:11:13.340Z,27.57
2022-08-16T18:13:43.063Z,27.58
2022-08-16T18:16:14.631Z,27.58
2022-08-16T18:18:46.097Z,27.57
2022-08-16T18:21:32.989Z,27.57
2022-08-16T18:24:00.837Z,27.55
2022-08-16T18:26:28.645Z,27.54
2022-08-16T18:28:56.338Z,27.54
2022-08-16T18:31:25.955Z,27.54
2022-08-16T18:33:55.541Z,27.52
2022-08-16T18:36:23.965Z,27.51
2022-08-16T18:38:53.117Z,27.50
2022-08-16T18:41:21.983Z,27.49
2022-08-16T18:44:14.207Z,27.48
2022-08-16T18:46:39.611Z,27.46
2022-08-16T18:49:07.705Z,27.46
2022-08-16T18:51:36.906Z,27.45
2022-08-16T18:54:05.050Z,27.43
2022-08-16T18:56:54.330Z,27.41
2022-08-16T18:59:20.419Z,27.39
2022-08-16T19:01:50.342Z,27.37
2022-08-16T19:04:55.531Z,27.37
2022-08-16T19:07:05.830Z,27.36
2022-08-16T19:09:34.097Z,27.35
2022-08-16T19:12:05.059Z,27.35
2022-08-16T19:14:32.742Z,27.35
2022-08-16T19:17:01.800Z,27.34
2022-08-16T19:19:29.518Z,27.34
2022-08-16T19:21:58.244Z,27.33
2022-08-16T19:24:29.230Z,27.32
2022-08-16T19:26:57.329Z,27.30
2022-08-16T19:29:25.286Z,27.29
2022-08-16T19:31:53.132Z,27.28
2022-08-16T19:34:22.171Z,27.23
2022-08-16T19:36:49.870Z,27.25
2022-08-16T19:39:18.174Z,27.23
2022-08-16T19:41:52.990Z,27.21
2022-08-16T19:44:22.112Z,27.20
2022-08-16T19:46:49.823Z,27.13
2022-08-16T19:49:17.944Z,27.17
2022-08-16T19:51:47.731Z,27.15
2022-08-16T19:54:15.955Z,27.15
2022-08-16T19:56:43.706Z,27.13
2022-08-16T19:59:20.561Z,27.11
2022-08-16T20:01:52.832Z,27.11
2022-08-16T20:04:22.007Z,27.10
2022-08-16T20:06:52.557Z,27.07
2022-08-16T20:09:20.648Z,27.08
2022-08-16T20:11:49.570Z,27.06
2022-08-16T20:14:20.141Z,27.05
2022-08-16T20:16:54.801Z,27.04
2022-08-16T20:19:22.523Z,27.04
2022-08-16T20:21:51.626Z,27.04
2022-08-16T20:24:36.034Z,27.04
2022-08-16T20:27:06.288Z,27.03
2022-08-16T20:29:34.710Z,27.03
2022-08-16T20:32:02.728Z,27.01
2022-08-16T20:34:30.473Z,27.00
2022-08-16T20:36:59.544Z,27.00
2022-08-16T20:39:27.925Z,27.00
2022-08-16T20:41:55.650Z,27.00
2022-08-16T20:44:25.172Z,26.98
2022-08-16T20:46:53.252Z,26.97
2022-08-16T20:49:20.986Z,26.97
2022-08-16T20:51:50.982Z,26.97
2022-08-16T20:54:23.044Z,26.94
2022-08-16T20:56:50.795Z,26.95
2022-08-16T20:59:18.578Z,26.92
2022-08-16T21:01:50.629Z,26.91
2022-08-16T21:04:19.713Z,26.90
2022-08-16T21:06:52.991Z,26.89
2022-08-16T21:09:23.175Z,26.87
2022-08-16T21:11:52.987Z,26.86
2022-08-16T21:14:20.762Z,26.84
2022-08-16T21:16:48.512Z,26.84
2022-08-16T21:19:16.348Z,26.83
2022-08-16T21:21:44.050Z,26.82
2022-08-16T21:24:11.737Z,26.80
2022-08-16T21:26:40.803Z,26.79
2022-08-16T21:29:21.646Z,26.76
2022-08-16T21:31:52.566Z,26.75
2022-08-16T21:34:20.330Z,26.75
2022-08-16T21:36:48.644Z,26.73
2022-08-16T21:39:16.332Z,26.72
2022-08-16T21:41:45.364Z,26.71
2022-08-16T21:44:13.033Z,26.68
2022-08-16T21:46:40.739Z,26.67
2022-08-16T21:49:08.422Z,26.64
2022-08-16T21:51:36.252Z,26.62
2022-08-16T21:54:04.092Z,26.62
2022-08-16T21:56:31.979Z,26.60
2022-08-16T21:59:01.023Z,26.59
2022-08-16T22:01:29.516Z,26.57
2022-08-16T22:04:09.536Z,26.56
2022-08-16T22:06:45.036Z,26.55
2022-08-16T22:09:15.476Z,26.53
2022-08-16T22:11:44.206Z,26.51
2022-08-16T22:14:13.206Z,26.49
2022-08-16T22:16:42.043Z,26.49
2022-08-16T22:19:09.875Z,26.47
2022-08-16T22:21:37.602Z,26.47
2022-08-16T22:24:06.244Z,26.45
2022-08-16T22:26:42.275Z,26.44
2022-08-16T22:29:14.826Z,26.44
2022-08-16T22:31:44.334Z,26.42
2022-08-16T22:34:12.838Z,26.42
2022-08-16T22:36:40.848Z,26.40
2022-08-16T22:39:11.068Z,26.39
2022-08-16T22:41:39.935Z,26.37
2022-08-16T22:44:08.132Z,26.36
2022-08-16T22:46:38.402Z,26.34
2022-08-16T22:49:07.747Z,26.35
2022-08-16T22:51:36.653Z,26.34
2022-08-16T22:54:47.362Z,26.32
2022-08-16T22:56:52.873Z,26.30
2022-08-16T22:59:20.565Z,26.28
2022-08-16T23:01:49.614Z,26.26
2022-08-16T23:04:17.627Z,26.26
2022-08-16T23:06:45.342Z,26.25
2022-08-16T23:09:13.106Z,26.23
2022-08-16T23:11:40.797Z,26.22
2022-08-16T23:14:08.486Z,26.20
2022-08-16T23:16:36.168Z,26.19
2022-08-16T23:19:07.230Z,26.18
2022-08-16T23:21:37.105Z,26.18
2022-08-16T23:24:06.885Z,26.16
2022-08-16T23:26:46.564Z,26.14
2022-08-16T23:29:23.571Z,26.11
2022-08-16T23:31:53.600Z,26.10
2022-08-16T23:34:22.967Z,26.09
2022-08-16T23:36:50.646Z,26.07
2022-08-16T23:39:18.330Z,26.04
2022-08-16T23:41:46.056Z,26.02
2022-08-16T23:44:56.780Z,26.03
2022-08-16T23:47:01.585Z,25.99
2022-08-16T23:50:01.029Z,25.98
2022-08-16T23:52:18.996Z,25.97
2022-08-16T23:55:07.520Z,25.96
2022-08-16T23:57:35.196Z,25.93
